Time;durP1;ratioP1;P1;durP2;ratioP2;P2;SDS_P1;SDS_P2;PMS_P1;PMS_P2;Temp;Humidity;BMP_temperature;BMP_pressure;BME280_temperature;BME280_humidity;BME280_pressure;Samples;Min_cycle;Max_cycle;Signal;HPM_P1;HPM_P2
2023/05/15 00:01:05;;;;;;;14.52;9.32;;;;;;;14.49;100.00;99700.28;5108252;28;20059;-69
2023/05/15 00:03:31;;;;;;;10.32;9.13;;;;;;;14.49;100.00;99700.28;5108444;28;20028;-69
2023/05/15 00:05:56;;;;;;;12.13;9.57;;;;;;;14.42;100.00;99682.25;5104602;28;20030;-69
2023/05/15 00:08:22;;;;;;;12.90;9.85;;;;;;;14.51;100.00;99695.53;5108226;28;20036;-69
2023/05/15 00:10:48;;;;;;;15.27;9.68;;;;;;;14.40;100.00;99677.03;5108694;28;20072;-69
2023/05/15 00:13:13;;;;;;;13.07;9.35;;;;;;;14.52;100.00;99682.91;5105632;28;20036;-68
2023/05/15 00:15:38;;;;;;;12.45;10.18;;;;;;;14.47;100.00;99683.41;5108021;28;20661;-68
2023/05/15 00:18:04;;;;;;;11.93;9.98;;;;;;;14.43;100.00;99679.41;5108526;28;20047;-69
2023/05/15 00:20:29;;;;;;;16.40;10.15;;;;;;;14.42;100.00;99666.94;5099815;28;20019;-68
2023/05/15 00:22:55;;;;;;;16.42;9.57;;;;;;;14.52;100.00;99686.44;5111449;28;20392;-68
2023/05/15 00:25:21;;;;;;;14.40;10.00;;;;;;;14.58;100.00;99699.25;5109769;28;20820;-68
2023/05/15 00:27:46;;;;;;;11.18;9.95;;;;;;;14.36;100.00;99655.97;5112558;28;20031;-68
2023/05/15 00:30:12;;;;;;;11.25;9.63;;;;;;;14.57;100.00;99691.31;5112518;28;20026;-68
2023/05/15 00:32:38;;;;;;;14.88;9.90;;;;;;;14.58;100.00;99693.84;5113652;27;20152;-68
2023/05/15 00:35:04;;;;;;;15.07;10.38;;;;;;;14.51;100.00;99678.53;5111779;28;20103;-68
2023/05/15 00:37:29;;;;;;;13.70;10.68;;;;;;;14.60;100.00;99693.66;5099089;28;20031;-69
2023/05/15 00:39:55;;;;;;;13.43;9.85;;;;;;;14.60;100.00;99697.19;5112046;28;20026;-69
2023/05/15 00:42:22;;;;;;;17.85;10.23;;;;;;;14.60;100.00;99691.78;5111734;28;20039;-68
2023/05/15 00:44:49;;;;;;;13.82;10.50;;;;;;;14.45;100.00;99655.75;5112133;28;20035;-68
2023/05/15 00:47:14;;;;;;;15.43;10.90;;;;;;;14.60;100.00;99681.00;5112553;27;20034;-69
2023/05/15 00:49:41;;;;;;;20.50;11.23;;;;;;;14.43;100.00;99655.09;5111987;28;20024;-69
2023/05/15 00:52:07;;;;;;;11.80;10.07;;;;;;;14.60;100.00;99682.84;5112261;28;20761;-69
2023/05/15 00:54:33;;;;;;;14.40;11.15;;;;;;;14.62;100.00;99688.91;5111826;28;20027;-69
2023/05/15 00:57:00;;;;;;;14.50;11.02;;;;;;;14.60;100.00;99680.16;5112056;28;20034;-69
2023/05/15 00:59:27;;;;;;;15.02;10.55;;;;;;;14.52;100.00;99667.56;5104711;28;20626;-69
2023/05/15 01:01:53;;;;;;;19.10;11.35;;;;;;;14.61;100.00;99684.56;5112177;28;20115;-69
2023/05/15 01:04:19;;;;;;;15.27;11.68;;;;;;;14.46;100.00;99667.41;5112225;28;20073;-69
2023/05/15 01:06:44;;;;;;;17.30;11.63;;;;;;;14.60;100.00;99688.25;5109889;28;20042;-69
2023/05/15 01:09:12;;;;;;;14.98;11.27;;;;;;;14.48;100.00;99665.38;5111901;28;20125;-69
2023/05/15 01:11:40;;;;;;;21.17;11.15;;;;;;;14.58;100.00;99677.66;5108829;28;20368;-69
2023/05/15 01:14:07;;;;;;;16.75;11.65;;;;;;;14.61;100.00;99673.75;5111954;28;20024;-68
2023/05/15 01:16:34;;;;;;;14.27;10.90;;;;;;;14.61;100.00;99671.88;5093413;28;20042;-68
2023/05/15 01:19:00;;;;;;;13.35;10.73;;;;;;;14.61;100.00;99688.06;5111746;28;20060;-68
2023/05/15 01:21:37;;;;;;;19.83;11.70;;;;;;;14.61;100.00;99689.94;5111966;28;20135;-69
2023/05/15 01:24:33;;;;;;;14.13;11.02;;;;;;;14.60;100.00;99697.19;5109312;28;20410;-68
2023/05/15 01:27:16;;;;;;;14.68;12.02;;;;;;;14.61;100.00;99685.38;5108846;28;20043;-68
2023/05/15 01:29:54;;;;;;;12.43;10.90;;;;;;;14.63;100.00;99696.00;5110164;28;20476;-69
2023/05/15 01:32:30;;;;;;;16.38;11.45;;;;;;;14.45;100.00;99669.25;5109569;28;20080;-69
2023/05/15 01:35:15;;;;;;;17.60;12.95;;;;;;;14.58;100.00;99688.44;5111662;28;20027;-68
2023/05/15 01:37:48;;;;;;;18.17;12.23;;;;;;;14.39;100.00;99663.72;5110940;28;20649;-68
2023/05/15 01:40:16;;;;;;;19.55;14.50;;;;;;;14.58;100.00;99684.91;5111388;28;20627;-69
2023/05/15 01:43:09;;;;;;;16.13;13.30;;;;;;;14.56;100.00;99687.78;5111274;28;20412;-68
2023/05/15 01:45:36;;;;;;;16.52;12.93;;;;;;;14.47;100.00;99675.31;5108427;28;20066;-68
2023/05/15 01:48:06;;;;;;;15.70;11.98;;;;;;;14.49;100.00;99672.44;5095782;28;20032;-68
2023/05/15 01:50:34;;;;;;;15.60;12.15;;;;;;;14.45;100.00;99665.72;5110543;28;20528;-68
2023/05/15 01:53:02;;;;;;;20.73;12.85;;;;;;;14.51;100.00;99679.34;5110402;28;20027;-68
2023/05/15 01:55:29;;;;;;;17.88;11.52;;;;;;;14.52;100.00;99682.91;5095757;28;20019;-68
2023/05/15 01:57:57;;;;;;;20.10;12.82;;;;;;;14.53;100.00;99696.22;5110843;28;20418;-68
2023/05/15 02:00:23;;;;;;;15.20;11.52;;;;;;;14.51;100.00;99692.03;5110730;28;20162;-68
2023/05/15 02:02:49;;;;;;;14.70;11.50;;;;;;;14.51;100.00;99692.03;5111187;28;20027;-68
2023/05/15 02:05:15;;;;;;;14.00;11.80;;;;;;;14.50;100.00;99691.16;5111097;28;20023;-68
2023/05/15 02:07:43;;;;;;;15.18;11.90;;;;;;;14.49;100.00;99700.28;5110454;28;20027;-68
2023/05/15 02:10:10;;;;;;;18.80;12.13;;;;;;;14.31;100.00;99664.59;5110640;28;20062;-68
2023/05/15 02:12:37;;;;;;;16.60;12.07;;;;;;;14.38;100.00;99678.25;5107936;28;20034;-68
2023/05/15 02:15:03;;;;;;;18.35;12.32;;;;;;;14.42;100.00;99682.25;5110681;28;20444;-69
2023/05/15 02:17:28;;;;;;;14.98;12.05;;;;;;;14.49;100.00;99688.63;5103749;28;20150;-68
2023/05/15 02:19:54;;;;;;;16.10;12.80;;;;;;;14.46;100.00;99679.06;5110474;28;20061;-68
2023/05/15 02:22:20;;;;;;;15.13;11.98;;;;;;;14.47;100.00;99677.16;5110738;28;20055;-68
2023/05/15 02:24:45;;;;;;;14.82;11.40;;;;;;;14.48;100.00;99684.28;5110761;28;20032;-69
2023/05/15 02:27:25;;;;;;;13.63;11.40;;;;;;;14.29;100.00;99644.22;5110397;28;20097;-69
2023/05/15 02:30:10;;;;;;;17.58;12.13;;;;;;;14.46;100.00;99670.94;5110476;28;20030;-69
2023/05/15 02:32:46;;;;;;;13.73;11.07;;;;;;;14.46;100.00;99670.09;5108659;28;20073;-68
2023/05/15 02:35:25;;;;;;;13.85;11.23;;;;;;;14.46;100.00;99672.81;5110494;28;20612;-68
2023/05/15 02:37:54;;;;;;;15.95;11.18;;;;;;;14.45;100.00;99665.72;5110115;28;20027;-68
2023/05/15 02:40:22;;;;;;;13.68;11.20;;;;;;;14.45;100.00;99669.25;5109907;28;20426;-65
2023/05/15 02:42:49;;;;;;;11.48;10.27;;;;;;;14.45;100.00;99669.25;5109412;28;20030;-65
2023/05/15 02:45:16;;;;;;;16.10;11.63;;;;;;;14.39;100.00;99664.59;5108753;28;20118;-64
2023/05/15 02:47:42;;;;;;;16.85;11.00;;;;;;;14.38;100.00;99656.66;5109189;28;20047;-65
2023/05/15 02:50:09;;;;;;;14.40;11.02;;;;;;;14.41;100.00;99649.03;5109191;28;20023;-65
2023/05/15 02:52:34;;;;;;;13.13;11.02;;;;;;;14.42;100.00;99641.78;5109180;28;20034;-64
2023/05/15 02:55:00;;;;;;;14.13;10.95;;;;;;;14.34;100.00;99633.72;5109265;28;20106;-65
2023/05/15 02:57:25;;;;;;;13.77;11.50;;;;;;;14.45;100.00;99653.06;5108825;28;20019;-64
2023/05/15 02:59:53;;;;;;;15.93;12.70;;;;;;;14.45;100.00;99658.47;5109149;28;20080;-64
2023/05/15 03:02:18;;;;;;;12.45;11.10;;;;;;;14.44;100.00;99654.09;5109107;28;20053;-64
2023/05/15 03:04:44;;;;;;;14.98;11.57;;;;;;;14.45;100.00;99658.47;5109085;28;20126;-64
2023/05/15 03:07:10;;;;;;;13.10;10.82;;;;;;;14.46;100.00;99654.75;5109436;27;20031;-64
2023/05/15 03:09:35;;;;;;;15.32;11.50;;;;;;;14.45;100.00;99646.84;5108531;28;20027;-64
2023/05/15 03:12:01;;;;;;;16.20;11.80;;;;;;;14.40;100.00;99633.03;5108801;28;20023;-64
2023/05/15 03:14:26;;;;;;;15.02;12.00;;;;;;;14.46;100.00;99646.66;5108343;28;20253;-64
2023/05/15 03:16:52;;;;;;;14.60;11.07;;;;;;;14.43;100.00;99641.63;5108176;28;20024;-63
2023/05/15 03:19:17;;;;;;;14.40;11.65;;;;;;;14.47;100.00;99655.59;5108709;28;20107;-64
2023/05/15 03:21:43;;;;;;;12.95;11.48;;;;;;;14.46;100.00;99656.59;5108171;28;20715;-63
2023/05/15 03:24:08;;;;;;;15.07;12.07;;;;;;;14.45;100.00;99644.97;5108392;28;20043;-64
2023/05/15 03:26:34;;;;;;;14.88;11.82;;;;;;;14.46;100.00;99645.81;5107479;28;20087;-64
2023/05/15 03:29:01;;;;;;;13.65;11.50;;;;;;;14.46;100.00;99649.38;5098334;28;20020;-64
2023/05/15 03:31:27;;;;;;;14.95;11.45;;;;;;;14.38;100.00;99633.19;5108400;28;20107;-64
2023/05/15 03:33:52;;;;;;;12.98;11.30;;;;;;;14.47;100.00;99631.31;5108694;28;20451;-63
2023/05/15 03:36:17;;;;;;;14.25;11.90;;;;;;;14.47;100.00;99631.31;5108716;28;20023;-64
2023/05/15 03:38:43;;;;;;;14.23;11.27;;;;;;;14.46;100.00;99627.78;5108048;28;20118;-64
2023/05/15 03:41:09;;;;;;;14.15;12.00;;;;;;;14.47;100.00;99625.91;5108532;28;20032;-64
2023/05/15 03:43:35;;;;;;;17.58;12.48;;;;;;;14.46;100.00;99617.00;5107987;28;20408;-64
2023/05/15 03:46:00;;;;;;;15.90;12.15;;;;;;;14.46;100.00;99613.44;5108244;28;20032;-64
2023/05/15 03:48:25;;;;;;;14.68;12.23;;;;;;;14.37;100.00;99599.16;5107162;28;20051;-64
2023/05/15 03:50:51;;;;;;;15.60;12.77;;;;;;;14.48;100.00;99614.94;5092750;28;20488;-63
2023/05/15 03:53:17;;;;;;;15.75;12.65;;;;;;;14.44;100.00;99599.31;5108268;28;20031;-63
2023/05/15 03:55:42;;;;;;;14.50;12.57;;;;;;;14.46;100.00;99602.66;5107490;28;20478;-64
2023/05/15 03:58:08;;;;;;;14.05;11.60;;;;;;;14.47;100.00;99594.38;5107346;28;20031;-63
2023/05/15 04:00:33;;;;;;;18.35;13.27;;;;;;;14.38;100.00;99581.94;5107476;28;20024;-64
2023/05/15 04:03:00;;;;;;;15.27;12.35;;;;;;;14.51;100.00;99600.28;5108007;28;20472;-64
2023/05/15 04:05:25;;;;;;;17.38;12.65;;;;;;;14.46;100.00;99590.00;5107304;28;20075;-64
2023/05/15 04:07:51;;;;;;;18.17;12.70;;;;;;;14.46;100.00;99583.75;5094628;28;20015;-64
2023/05/15 04:10:16;;;;;;;16.65;13.07;;;;;;;14.49;100.00;99597.75;5107643;28;20115;-63
2023/05/15 04:12:42;;;;;;;18.10;13.25;;;;;;;14.50;100.00;99588.63;5107262;28;20032;-64
2023/05/15 04:15:19;;;;;;;16.98;12.10;;;;;;;14.51;100.00;99586.78;5107721;28;20023;-64
2023/05/15 04:17:45;;;;;;;16.50;11.93;;;;;;;14.37;100.00;99560.53;5093208;28;20031;-65
2023/05/15 04:20:14;;;;;;;15.18;12.65;;;;;;;14.37;100.00;99564.09;5107456;28;20027;-64
2023/05/15 04:22:40;;;;;;;15.80;13.07;;;;;;;14.44;100.00;99573.16;5107485;28;20034;-63
2023/05/15 04:25:06;;;;;;;14.13;12.20;;;;;;;14.45;100.00;99580.22;5107414;28;20024;-65
2023/05/15 04:27:32;;;;;;;16.42;13.77;;;;;;;14.50;100.00;99601.28;5093088;28;20031;-64
2023/05/15 04:29:57;;;;;;;13.55;12.07;;;;;;;14.50;100.00;99607.53;5104159;28;20027;-65
2023/05/15 04:32:23;;;;;;;16.00;12.00;;;;;;;14.41;100.00;99603.16;5100117;28;20088;-65
2023/05/15 04:34:48;;;;;;;14.63;12.70;;;;;;;14.42;100.00;99599.47;5107650;28;20138;-65
2023/05/15 04:37:14;;;;;;;13.57;12.05;;;;;;;14.53;100.00;99615.25;5106429;28;20031;-65
2023/05/15 04:39:39;;;;;;;20.25;13.23;;;;;;;14.42;100.00;99588.69;5107129;28;20039;-65
2023/05/15 04:42:05;;;;;;;17.48;12.40;;;;;;;14.55;100.00;99602.44;5093744;28;20046;-65
2023/05/15 04:44:31;;;;;;;19.55;13.98;;;;;;;14.51;100.00;99590.31;5105533;28;20019;-69
2023/05/15 04:46:57;;;;;;;15.23;12.43;;;;;;;14.56;100.00;99587.94;5106775;28;20069;-68
2023/05/15 04:49:22;;;;;;;13.85;12.45;;;;;;;14.35;100.00;99547.22;5107065;28;20035;-68
2023/05/15 04:51:47;;;;;;;14.93;12.75;;;;;;;14.50;100.00;99569.75;5107394;28;20035;-68
2023/05/15 04:54:13;;;;;;;15.13;13.20;;;;;;;14.55;100.00;99572.75;5106843;28;20054;-68
2023/05/15 04:56:38;;;;;;;17.77;13.20;;;;;;;14.57;100.00;99586.91;5107822;28;20035;-68
2023/05/15 04:59:04;;;;;;;13.93;12.40;;;;;;;14.60;100.00;99597.34;5108165;28;20016;-69
2023/05/15 05:01:29;;;;;;;15.73;12.93;;;;;;;14.60;100.00;99613.53;5107834;28;20049;-69
2023/05/15 05:03:55;;;;;;;15.60;13.45;;;;;;;14.62;100.00;99621.44;5108199;28;20085;-69
2023/05/15 05:06:22;;;;;;;16.65;13.07;;;;;;;14.60;100.00;99624.31;5107855;28;20077;-69
2023/05/15 05:08:47;;;;;;;18.48;13.02;;;;;;;14.63;100.00;99620.41;5109791;28;20038;-69
2023/05/15 05:11:12;;;;;;;14.70;12.77;;;;;;;14.66;100.00;99615.53;5111687;28;20023;-68
2023/05/15 05:13:38;;;;;;;17.98;12.73;;;;;;;14.67;100.00;99617.19;5111429;28;20027;-69
2023/05/15 05:16:04;;;;;;;16.20;13.23;;;;;;;14.61;100.00;99622.47;5096625;28;20069;-69
2023/05/15 05:18:29;;;;;;;17.73;13.05;;;;;;;14.52;100.00;99608.19;5103654;28;20055;-69
2023/05/15 05:21:00;;;;;;;19.20;14.43;;;;;;;14.66;100.00;99636.25;5096610;28;20138;-68
2023/05/15 05:23:25;;;;;;;17.35;13.75;;;;;;;14.71;100.00;99653.63;5110609;28;20432;-68
2023/05/15 05:25:50;;;;;;;18.83;12.75;;;;;;;14.55;100.00;99634.81;5111127;28;20047;-68
2023/05/15 05:28:16;;;;;;;16.33;12.52;;;;;;;14.73;100.00;99662.38;5110948;28;20028;-69
2023/05/15 05:30:44;;;;;;;14.85;13.07;;;;;;;14.75;100.00;99654.09;5110489;28;20716;-68
2023/05/15 05:33:10;;;;;;;15.30;13.23;;;;;;;14.76;100.00;99659.31;5110639;28;20515;-68
2023/05/15 05:35:36;;;;;;;17.40;14.70;;;;;;;14.62;100.00;99641.19;5110710;28;20034;-69
2023/05/15 05:38:01;;;;;;;18.00;14.13;;;;;;;14.78;100.00;99665.41;5110632;28;20613;-68
2023/05/15 05:40:27;;;;;;;17.85;13.52;;;;;;;14.67;100.00;99641.50;5110434;28;20029;-69
2023/05/15 05:42:52;;;;;;;15.68;13.90;;;;;;;14.65;100.00;99624.66;5111072;28;20027;-69
2023/05/15 05:45:17;;;;;;;15.68;13.23;;;;;;;14.63;100.00;99632.06;5111625;28;20073;-68
2023/05/15 05:47:43;;;;;;;18.95;13.95;;;;;;;14.83;100.00;99664.88;5110839;28;20080;-69
2023/05/15 05:50:09;;;;;;;15.93;14.15;;;;;;;14.81;100.00;99656.94;5111415;28;20036;-69
2023/05/15 05:52:34;;;;;;;15.63;13.75;;;;;;;14.85;100.00;99642.06;5108545;28;20110;-69
2023/05/15 05:54:59;;;;;;;16.90;13.80;;;;;;;14.86;100.00;99648.28;5111575;28;20024;-68
2023/05/15 05:57:25;;;;;;;16.58;14.43;;;;;;;14.88;100.00;99647.13;5110746;28;20117;-68
2023/05/15 05:59:50;;;;;;;18.33;14.60;;;;;;;14.88;100.00;99646.25;5103496;28;20946;-68
2023/05/15 06:02:16;;;;;;;25.70;15.70;;;;;;;14.84;100.00;99643.09;5111463;28;20059;-69
2023/05/15 06:04:42;;;;;;;23.20;16.05;;;;;;;14.90;100.00;99646.94;5110861;28;20452;-68
2023/05/15 06:07:07;;;;;;;21.08;15.85;;;;;;;14.90;100.00;99650.47;5111218;27;20413;-64
2023/05/15 06:09:33;;;;;;;26.00;17.50;;;;;;;14.94;100.00;99657.22;5110504;27;20032;-64
2023/05/15 06:11:59;;;;;;;20.25;16.77;;;;;;;14.93;100.00;99669.00;5111071;28;20023;-68
2023/05/15 06:14:25;;;;;;;23.83;16.63;;;;;;;14.96;100.00;99676.75;5110494;28;20047;-68
2023/05/15 06:16:51;;;;;;;18.67;14.35;;;;;;;14.85;100.00;99666.38;5110721;28;20062;-67
2023/05/15 06:19:16;;;;;;;21.55;17.73;;;;;;;15.00;100.00;99691.56;5109508;28;20019;-67
2023/05/15 06:21:42;;;;;;;19.83;16.20;;;;;;;15.01;100.00;99693.28;5094875;28;20039;-70
2023/05/15 06:24:07;;;;;;;18.80;16.38;;;;;;;14.94;100.00;99686.91;5110634;28;20024;-69
2023/05/15 06:26:33;;;;;;;20.80;16.83;;;;;;;15.03;100.00;99714.69;5109982;28;20126;-69
2023/05/15 06:28:58;;;;;;;20.98;16.40;;;;;;;15.01;100.00;99706.78;5110230;28;20024;-69
2023/05/15 06:31:24;;;;;;;19.80;15.80;;;;;;;15.01;100.00;99709.47;5110357;28;20031;-69
2023/05/15 06:33:49;;;;;;;22.23;17.17;;;;;;;15.00;100.00;99698.84;5110327;28;20035;-69
2023/05/15 06:36:15;;;;;;;24.58;17.98;;;;;;;14.92;100.00;99672.72;5110227;28;20582;-68
2023/05/15 06:38:41;;;;;;;23.90;17.45;;;;;;;15.03;100.00;99688.53;5100003;28;20041;-68
2023/05/15 06:41:06;;;;;;;22.98;17.65;;;;;;;15.01;100.00;99674.38;5107470;28;20035;-69
2023/05/15 06:43:31;;;;;;;21.42;16.30;;;;;;;15.08;100.00;99680.72;5110072;28;20027;-69
2023/05/15 06:45:57;;;;;;;21.65;16.42;;;;;;;15.01;100.00;99649.22;5110145;28;20093;-69
2023/05/15 06:48:22;;;;;;;21.63;17.98;;;;;;;15.10;100.00;99658.94;5107572;28;20027;-69
2023/05/15 06:50:48;;;;;;;22.38;16.48;;;;;;;15.16;100.00;99664.47;5109598;28;20065;-69
2023/05/15 06:53:13;;;;;;;20.48;16.90;;;;;;;14.91;100.00;99616.22;5109936;28;20031;-68
2023/05/15 06:55:38;;;;;;;20.80;16.35;;;;;;;15.17;100.00;99666.16;5109494;28;20659;-68
2023/05/15 06:58:04;;;;;;;22.10;16.95;;;;;;;15.17;100.00;99670.72;5109674;28;20111;-68
2023/05/15 07:00:30;;;;;;;21.92;16.85;;;;;;;15.14;100.00;99673.78;5096071;28;20060;-68
2023/05/15 07:02:56;;;;;;;23.73;17.02;;;;;;;15.25;100.00;99689.59;5105718;28;20027;-68
2023/05/15 07:05:21;;;;;;;24.33;17.17;;;;;;;15.14;100.00;99673.78;5092958;28;20092;-64
2023/05/15 07:07:47;;;;;;;23.55;17.77;;;;;;;15.23;100.00;99687.06;5109233;28;20402;-65
2023/05/15 07:10:12;;;;;;;19.23;15.75;;;;;;;15.15;100.00;99689.81;5109353;28;20077;-65
2023/05/15 07:12:37;;;;;;;20.83;16.52;;;;;;;15.25;100.00;99706.63;5107998;28;20043;-65
2023/05/15 07:15:04;;;;;;;20.50;15.80;;;;;;;15.31;100.00;99692.38;5109848;28;20039;-65
2023/05/15 07:17:32;;;;;;;19.67;15.27;;;;;;;15.34;100.00;99677.66;5108619;28;20527;-65
2023/05/15 07:19:57;;;;;;;18.73;15.15;;;;;;;15.33;100.00;99673.28;5109526;28;20019;-65
2023/05/15 07:22:26;;;;;;;17.63;14.50;;;;;;;15.36;100.00;99690.03;5095920;28;20050;-64
2023/05/15 07:24:52;;;;;;;17.08;14.25;;;;;;;15.21;100.00;99675.59;5108845;28;20408;-64
2023/05/15 07:27:17;;;;;;;16.83;13.35;;;;;;;15.21;100.00;99690.94;5109051;28;20071;-64
2023/05/15 07:29:43;;;;;;;15.48;13.35;;;;;;;15.21;100.00;99682.84;5108903;28;20118;-64
2023/05/15 07:32:08;;;;;;;14.05;12.25;;;;;;;15.21;100.00;99696.34;5108709;28;20031;-64
2023/05/15 07:35:10;;;;;;;13.13;11.73;;;;;;;15.15;100.00;99697.06;5109844;28;20034;-64
2023/05/15 07:37:45;;;;;;;12.90;11.50;;;;;;;15.15;100.00;99708.72;5111483;27;20043;-64
2023/05/15 07:40:11;;;;;;;13.00;11.30;;;;;;;15.13;100.00;99716.13;5109970;28;20467;-64
2023/05/15 07:42:38;;;;;;;12.50;11.20;;;;;;;15.14;100.00;99725.09;5104672;28;20030;-64
2023/05/15 07:45:04;;;;;;;11.40;10.20;;;;;;;15.14;100.00;99715.13;5110392;28;20438;-64
2023/05/15 07:47:30;;;;;;;11.23;10.02;;;;;;;15.16;100.00;99714.97;5110160;28;20032;-65
2023/05/15 07:49:55;;;;;;;11.95;10.65;;;;;;;15.21;100.00;99712.56;5110001;28;20038;-64
2023/05/15 07:52:21;;;;;;;11.75;10.48;;;;;;;15.25;100.00;99703.91;5112563;28;20034;-65
2023/05/15 07:54:46;;;;;;;12.88;11.50;;;;;;;15.20;100.00;99694.66;5110124;28;20046;-65
2023/05/15 07:57:12;;;;;;;13.60;11.73;;;;;;;15.38;100.00;99720.41;5109709;28;20120;-64
2023/05/15 07:59:38;;;;;;;21.45;16.88;;;;;;;15.48;100.00;99728.28;5109442;28;20032;-64
2023/05/15 08:02:04;;;;;;;28.40;21.45;;;;;;;15.56;100.00;99733.63;5109011;28;20043;-64
2023/05/15 08:04:29;;;;;;;17.00;14.43;;;;;;;15.46;100.00;99723.06;5109303;28;20084;-64
2023/05/15 08:06:55;;;;;;;14.88;12.20;;;;;;;15.42;100.00;99710.91;5109947;28;20049;-65
2023/05/15 08:09:20;;;;;;;12.07;10.88;;;;;;;15.29;100.00;99689.00;5109522;28;20083;-64
2023/05/15 08:11:45;;;;;;;11.48;10.30;;;;;;;15.58;100.00;99727.00;5109321;28;20507;-65
2023/05/15 08:14:11;;;;;;;11.10;10.00;;;;;;;15.62;100.00;99727.50;5109573;28;20076;-65
2023/05/15 08:16:36;;;;;;;11.02;9.88;;;;;;;15.51;100.00;99712.53;5109259;28;20031;-64
2023/05/15 08:19:03;;;;;;;10.65;9.65;;;;;;;15.62;100.00;99722.09;5109786;28;20169;-64
2023/05/15 08:21:31;;;;;;;10.35;9.25;;;;;;;15.73;100.00;99729.75;5109690;28;20036;-64
2023/05/15 08:23:57;;;;;;;10.18;9.07;;;;;;;15.65;100.00;99709.06;5109767;28;20042;-68
2023/05/15 08:26:23;;;;;;;10.05;9.05;;;;;;;15.78;100.00;99732.78;5095779;28;20070;-68
2023/05/15 08:28:48;;;;;;;9.85;8.75;;;;;;;15.77;100.00;99725.69;5101081;28;20476;-69
2023/05/15 08:31:14;;;;;;;11.48;10.27;;;;;;;15.74;100.00;99731.47;5110098;28;20511;-69
2023/05/15 08:33:40;;;;;;;9.95;8.95;;;;;;;15.76;100.00;99746.47;5109945;28;20506;-69
2023/05/15 08:36:06;;;;;;;10.40;9.27;;;;;;;15.77;100.00;99758.97;5110287;28;20031;-69
2023/05/15 08:38:31;;;;;;;11.95;10.52;;;;;;;15.81;100.00;99748.63;5110143;28;20043;-69
2023/05/15 08:41:01;;;;;;;11.75;9.98;;;;;;;15.81;100.00;99748.63;5110073;28;20027;-69
2023/05/15 08:43:28;;;;;;;11.38;10.18;;;;;;;15.84;100.00;99745.56;5109427;28;20024;-69
2023/05/15 08:45:54;;;;;;;11.07;9.98;;;;;;;15.73;100.00;99716.22;5114228;28;20031;-69
2023/05/15 08:48:24;;;;;;;11.13;10.05;;;;;;;15.89;100.00;99733.19;5105967;28;20130;-68
2023/05/15 08:50:51;;;;;;;10.40;9.35;;;;;;;15.95;100.00;99728.88;5114233;27;20039;-69
2023/05/15 08:53:17;;;;;;;12.52;10.85;;;;;;;15.92;100.00;99726.53;5114226;27;20029;-69
2023/05/15 08:55:43;;;;;;;10.23;9.20;;;;;;;16.10;100.00;99737.03;5114087;28;20027;-69
2023/05/15 08:58:09;;;;;;;11.48;9.30;;;;;;;16.08;100.00;99723.69;5114130;28;20039;-68
2023/05/15 09:00:35;;;;;;;9.65;8.70;;;;;;;16.17;100.00;99727.16;5113694;28;20023;-69
2023/05/15 09:03:01;;;;;;;9.70;8.77;;;;;;;16.29;100.00;99737.34;5113966;28;20028;-69
2023/05/15 09:05:29;;;;;;;10.10;8.35;;;;;;;16.44;100.00;99748.22;5113455;28;20106;-69
2023/05/15 09:07:57;;;;;;;8.25;7.45;;;;;;;16.44;100.00;99750.94;5104625;28;20043;-69
2023/05/15 09:10:23;;;;;;;8.27;7.43;;;;;;;16.39;100.00;99729.81;5104994;28;20026;-69
2023/05/15 09:12:50;;;;;;;7.80;7.00;;;;;;;16.53;100.00;99747.09;5113442;28;20031;-69
2023/05/15 09:15:21;;;;;;;8.77;7.43;;;;;;;16.59;100.00;99751.75;5113177;28;20038;-69
2023/05/15 09:17:47;;;;;;;7.82;6.90;;;;;;;16.66;100.00;99760.81;5112226;28;20027;-69
2023/05/15 09:20:27;;;;;;;7.05;6.35;;;;;;;16.73;100.00;99757.19;5112427;28;20024;-69
2023/05/15 09:22:53;;;;;;;6.80;6.10;;;;;;;16.75;100.00;99765.13;5112236;28;20038;-69
2023/05/15 09:25:45;;;;;;;6.70;6.07;;;;;;;16.77;100.00;99768.50;5113596;28;20118;-68
2023/05/15 09:28:25;;;;;;;6.45;5.85;;;;;;;16.79;100.00;99778.09;5101658;28;20494;-69
2023/05/15 09:31:04;;;;;;;6.38;5.78;;;;;;;16.75;100.00;99757.00;5111845;28;20039;-68
2023/05/15 09:33:32;;;;;;;6.80;5.10;;;;;;;16.85;100.00;99774.66;5106407;28;20028;-69
2023/05/15 09:35:58;;;;;;;5.72;5.13;;;;;;;16.82;100.00;99755.22;5107544;28;20032;-68
2023/05/15 09:38:24;;;;;;;9.38;4.78;;;;;;;16.93;100.00;99765.59;5111372;27;20019;-69
2023/05/15 09:40:49;;;;;;;5.10;4.70;;;;;;;16.97;100.00;99770.44;5112969;28;20023;-69
2023/05/15 09:43:15;;;;;;;6.18;4.57;;;;;;;17.02;100.00;99767.13;5113029;28;20027;-68
2023/05/15 09:45:41;;;;;;;5.10;4.30;;;;;;;16.87;100.00;99725.69;5111817;28;20027;-69
2023/05/15 09:48:08;;;;;;;4.50;3.97;;;;;;;17.16;100.00;99779.84;5112480;27;20020;-69
2023/05/15 09:50:36;;;;;;;3.75;3.08;;;;;;;17.12;100.00;99756.88;5110118;28;20024;-69
2023/05/15 09:53:02;;;;;;;3.40;3.10;;;;;;;17.10;100.00;99754.34;5101597;28;20036;-69
2023/05/15 09:55:30;;;;;;;4.68;4.13;;;;;;;17.12;100.00;99752.28;5112594;28;20113;-69
2023/05/15 09:58:05;;;;;;;4.50;4.05;;;;;;;17.32;100.00;99780.44;5112109;28;20023;-68
2023/05/15 10:00:31;;;;;;;4.70;3.08;;;;;;;17.38;100.00;99792.41;5112687;28;20530;-69
2023/05/15 10:03:01;;;;;;;7.80;2.80;;;;;;;17.40;100.00;99784.91;5112626;28;20058;-69
2023/05/15 10:05:28;;;;;;;3.42;2.67;;;;;;;17.28;100.00;99764.78;5112589;28;20293;-68
2023/05/15 10:07:54;;;;;;;4.13;2.65;;;;;;;17.42;100.00;99782.88;5099804;28;20080;-69
2023/05/15 10:10:21;;;;;;;3.53;2.95;;;;;;;17.43;100.00;99785.41;5111624;28;20026;-69
2023/05/15 10:12:49;;;;;;;2.80;2.60;;;;;;;17.48;100.00;99791.09;5111440;28;20468;-68
2023/05/15 10:15:15;;;;;;;2.92;2.72;;;;;;;17.50;100.00;99794.47;5109319;28;20530;-69
2023/05/15 10:17:43;;;;;;;2.67;2.47;;;;;;;17.38;100.00;99773.44;5113788;27;20116;-69
2023/05/15 10:20:09;;;;;;;4.63;2.95;;;;;;;17.50;100.00;99788.19;5114748;27;20456;-68
2023/05/15 10:22:37;;;;;;;2.97;2.67;;;;;;;17.51;100.00;99795.31;5112023;28;20476;-69
2023/05/15 10:25:20;;;;;;;2.70;2.50;;;;;;;17.49;100.00;99790.06;5111949;28;20024;-67
2023/05/15 10:27:46;;;;;;;2.97;2.78;;;;;;;17.46;100.00;99782.31;5109587;28;20055;-69
2023/05/15 10:30:15;;;;;;;4.18;2.80;;;;;;;17.54;100.00;99797.66;5110544;28;20556;-68
2023/05/15 10:32:42;;;;;;;2.70;2.50;;;;;;;17.48;100.00;99785.66;5108647;28;20092;-69
2023/05/15 10:35:10;;;;;;;3.55;2.33;;;;;;;17.56;100.00;99795.56;5107630;28;20399;-69
2023/05/15 10:37:36;;;;;;;4.55;2.90;;;;;;;17.53;100.00;99788.66;5111476;27;20032;-70
2023/05/15 10:40:06;;;;;;;2.80;2.60;;;;;;;17.58;100.00;99790.78;5096049;28;20027;-69
2023/05/15 10:42:33;;;;;;;3.05;2.80;;;;;;;17.58;100.00;99778.06;5094965;28;20452;-70
2023/05/15 10:45:01;;;;;;;2.63;2.42;;;;;;;17.47;100.00;99767.72;5095687;28;20049;-70
2023/05/15 10:47:28;;;;;;;2.90;2.65;;;;;;;17.69;100.00;99803.84;5111213;28;20031;-69
2023/05/15 10:49:54;;;;;;;2.70;2.50;;;;;;;17.71;100.00;99807.22;5110710;28;20124;-69
2023/05/15 10:52:20;;;;;;;3.38;2.60;;;;;;;17.68;100.00;99796.75;5110981;28;20081;-70
2023/05/15 10:54:45;;;;;;;2.60;2.40;;;;;;;17.68;100.00;99792.16;5111248;28;20023;-69
2023/05/15 10:57:11;;;;;;;2.30;2.10;;;;;;;17.74;100.00;99802.22;5111552;28;20149;-69
2023/05/15 10:59:36;;;;;;;3.08;2.78;;;;;;;17.69;100.00;99788.41;5095828;28;20027;-69
2023/05/15 11:02:20;;;;;;;10.85;8.88;;;;;;;17.77;100.00;99796.41;5111090;28;20391;-69
2023/05/15 11:04:46;;;;;;;4.80;4.30;;;;;;;17.75;100.00;99790.38;5111119;28;20047;-69
2023/05/15 11:07:17;;;;;;;4.03;3.22;;;;;;;17.74;100.00;99785.94;5110661;28;20028;-69
2023/05/15 11:09:42;;;;;;;2.50;2.30;;;;;;;17.80;100.00;99790.59;5111099;28;20020;-69
2023/05/15 11:12:10;;;;;;;2.70;2.50;;;;;;;17.81;100.00;99792.31;5110721;28;20031;-70
2023/05/15 11:14:38;;;;;;;6.88;2.53;;;;;;;17.83;100.00;99787.50;5111225;28;20028;-68